PWSweather.com
Personal Weather Stations
Station Observations
WISCHPK61
Green Bay Schmitt Park, Green Bay, WI 54311

Green Bay Schmitt ParkGreen Bay, WI 54311

Lat: 44.514277, Lon: -87.935067

Elevation: 735

Station Type: Acu Rite Pro Weather Center model 02032C

http://greenbayweathercam.com

High Low Average
Temperature 60.8°F16.0°C 34.9°F1.6°C 44.7°F7.1°C
Dew Point 56.0°F13.3°C 21.3°F-5.9°C 42.2°F5.7°C
Winds 2.3 mph 3.7 kmh Calm Calm Calm WSWCalm WSW
Wind Gusts 4.6 mph7.4 kmh -- --
Humidity 99% 49% 92%
Pressure 29.32 in992.9 mb 29.07 in984.4 mb -
Precipitation 0.00 in0.0 mm - -
Hour Temp Dew Point Humidity Winds Wind Gusts Pressure Precip Precip Rate Daily Precip Total
12:00 AM 46.8°F8.2°C 46.5°F8.1°C 99% Calm Calm -- 29.07 in984.4 mb - 0.00 in0.0 mm 0.00 in0.0 mm
01:00 AM 44.4°F6.9°C 44.1°F6.7°C 99% Calm Calm -- 29.09 in985.1 mb - 0.00 in0.0 mm 0.00 in0.0 mm
02:00 AM 42.7°F5.9°C 42.4°F5.8°C 99% Calm Calm -- 29.09 in985.1 mb - 0.00 in0.0 mm 0.00 in0.0 mm
03:00 AM 41.0°F5.0°C 40.7°F4.8°C 99% Calm Calm -- 29.09 in985.1 mb - 0.00 in0.0 mm 0.00 in0.0 mm
04:00 AM 40.5°F4.7°C 40.2°F4.6°C 99% Calm Calm -- 29.09 in985.1 mb - 0.00 in0.0 mm 0.00 in0.0 mm
05:00 AM 39.9°F4.4°C 39.6°F4.2°C 99% Calm Calm -- 29.10 in985.4 mb - 0.00 in0.0 mm 0.00 in0.0 mm
06:00 AM 38.8°F3.8°C 38.5°F3.6°C 99% Calm Calm -- 29.10 in985.4 mb - 0.00 in0.0 mm 0.00 in0.0 mm
07:00 AM 39.6°F4.2°C 39.4°F4.1°C 99% Calm Calm -- 29.11 in985.8 mb - 0.00 in0.0 mm 0.00 in0.0 mm
08:00 AM 41.6°F5.3°C 41.3°F5.2°C 99% Calm Calm -- 29.13 in986.5 mb - 0.00 in0.0 mm 0.00 in0.0 mm
09:00 AM 46.1°F7.8°C 45.8°F7.7°C 99% Calm Calm -- 29.12 in986.1 mb - 0.00 in0.0 mm 0.00 in0.0 mm
10:00 AM 49.3°F9.6°C 49.0°F9.4°C 99% 2.3 mph NW3.7 kmh NW 4.6 mph7.4 kmh 29.11 in985.8 mb - 0.00 in0.0 mm 0.00 in0.0 mm
11:00 AM 50.5°F10.3°C 50.2°F10.1°C 99% Calm Calm 1.2 mph1.9 kmh 29.11 in985.8 mb - 0.00 in0.0 mm 0.00 in0.0 mm
12:00 PM 53.8°F12.1°C 48.4°F9.1°C 82% Calm Calm -- 29.09 in985.1 mb - 0.00 in0.0 mm 0.00 in0.0 mm
01:00 PM 55.1°F12.8°C 42.7°F5.9°C 63% Calm Calm -- 29.07 in984.4 mb - 0.00 in0.0 mm 0.00 in0.0 mm
02:00 PM 60.8°F16.0°C 54.2°F12.3°C 79% Calm Calm -- 29.07 in984.4 mb - 0.00 in0.0 mm 0.00 in0.0 mm
03:00 PM 56.3°F13.5°C 56.0°F13.3°C 99% Calm Calm -- 29.09 in985.1 mb - 0.00 in0.0 mm 0.00 in0.0 mm
04:00 PM 53.6°F12.0°C 53.3°F11.8°C 99% Calm Calm -- 29.10 in985.4 mb - 0.00 in0.0 mm 0.00 in0.0 mm
05:00 PM 50.2°F10.1°C 49.9°F9.9°C 99% Calm Calm 1.2 mph1.9 kmh 29.13 in986.5 mb - 0.00 in0.0 mm 0.00 in0.0 mm
06:00 PM 45.0°F7.2°C 44.7°F7.1°C 99% Calm Calm -- 29.18 in988.1 mb - 0.00 in0.0 mm 0.00 in0.0 mm
07:00 PM 41.7°F5.4°C 41.4°F5.2°C 99% Calm Calm 2.3 mph3.7 kmh 29.20 in988.8 mb - 0.00 in0.0 mm 0.00 in0.0 mm
08:00 PM 38.8°F3.8°C 21.3°F-5.9°C 49% Calm Calm -- 29.23 in989.8 mb - 0.00 in0.0 mm 0.00 in0.0 mm
09:00 PM 36.9°F2.7°C 36.7°F2.6°C 99% Calm Calm -- 29.26 in990.9 mb - 0.00 in0.0 mm 0.00 in0.0 mm
10:00 PM 35.2°F1.8°C 34.9°F1.6°C 99% Calm Calm -- 29.29 in991.9 mb - 0.00 in0.0 mm 0.00 in0.0 mm
11:00 PM 35.2°F1.8°C 34.9°F1.6°C 99% Calm Calm 1.2 mph1.9 kmh 29.30 in992.2 mb - 0.00 in0.0 mm 0.00 in0.0 mm